SUD028 SLLP-SGAS
Flight info
| Callsign | SUD028 |
|---|---|
| Flight time | 2h 7m |
| Altitude | 37000 |
| Route | VAPAS UM657 UKELA |
| Aircraft | A320/M-SDFGHILORVWY/S |
Departure
| Time | 2026-05-07 18:20 |
|---|---|
| Airport | El Alto International Airport (SLLP) |
Arrival
| Time | 2026-05-07 20:27 |
|---|---|
| Airport | Silvio Pettirossi International Airport (SGAS) |
| Time | Latitude | Longitude | Altitude | Speed | Heading |
|---|---|---|---|---|---|
| 2026-05-07 18:00 | -16.50950 | -68.17720 | 13336 ft | 0 kts | 26° |
| 2026-05-07 18:00 | -16.50950 | -68.17721 | 13336 ft | 0 kts | 26° |
| 2026-05-07 18:13 | -16.50966 | -68.17729 | 13336 ft | 4 kts | 34° |
| 2026-05-07 18:13 | -16.50985 | -68.17747 | 13335 ft | 4 kts | 65° |
| 2026-05-07 18:13 | -16.50987 | -68.17768 | 13335 ft | 1 kts | 118° |
| 2026-05-07 18:13 | -16.50987 | -68.17769 | 13335 ft | 0 kts | 118° |
| 2026-05-07 18:16 | -16.50996 | -68.17752 | 13334 ft | 6 kts | 118° |
| 2026-05-07 18:16 | -16.51025 | -68.17696 | 13336 ft | 11 kts | 119° |
| 2026-05-07 18:16 | -16.51040 | -68.17669 | 13336 ft | 0 kts | 120° |
| 2026-05-07 18:17 | -16.51048 | -68.17655 | 13336 ft | 7 kts | 120° |
| 2026-05-07 18:18 | -16.51110 | -68.17573 | 13333 ft | 20 kts | 130° |
| 2026-05-07 18:18 | -16.51206 | -68.17456 | 13331 ft | 22 kts | 130° |
| 2026-05-07 18:18 | -16.51329 | -68.17363 | 13326 ft | 20 kts | 178° |
| 2026-05-07 18:18 | -16.51390 | -68.17442 | 13325 ft | 10 kts | 271° |
| 2026-05-07 18:19 | -16.51390 | -68.17445 | 13325 ft | 0 kts | 271° |
| 2026-05-07 18:19 | -16.51390 | -68.17447 | 13325 ft | 2 kts | 271° |
| 2026-05-07 18:19 | -16.51386 | -68.17599 | 13323 ft | 50 kts | 271° |
| 2026-05-07 18:19 | -16.51367 | -68.18180 | 13301 ft | 109 kts | 272° |
| 2026-05-07 18:20 | -16.51337 | -68.19144 | 13284 ft | 157 kts | 272° |
| 2026-05-07 18:20 | -16.51292 | -68.20438 | 13247 ft | 196 kts | 275° |
| 2026-05-07 18:20 | -16.51258 | -68.21851 | 13975 ft | 193 kts | 271° |
| 2026-05-07 18:20 | -16.51229 | -68.23267 | 14590 ft | 197 kts | 270° |
| 2026-05-07 18:21 | -16.51177 | -68.24655 | 15168 ft | 189 kts | 271° |
| 2026-05-07 18:21 | -16.51111 | -68.26053 | 15292 ft | 203 kts | 271° |
| 2026-05-07 18:21 | -16.51058 | -68.27556 | 15383 ft | 217 kts | 270° |
| 2026-05-07 18:21 | -16.51023 | -68.29168 | 15512 ft | 228 kts | 269° |
| 2026-05-07 18:22 | -16.51078 | -68.30862 | 15600 ft | 240 kts | 258° |
| 2026-05-07 18:22 | -16.51482 | -68.31944 | 15668 ft | 247 kts | 234° |
| 2026-05-07 18:22 | -16.53467 | -68.33251 | 15770 ft | 272 kts | 187° |
| 2026-05-07 18:22 | -16.55363 | -68.32972 | 15997 ft | 289 kts | 155° |
| 2026-05-07 18:23 | -16.56924 | -68.31594 | 16278 ft | 303 kts | 123° |
| 2026-05-07 18:23 | -16.57849 | -68.29568 | 16551 ft | 318 kts | 113° |
| 2026-05-07 18:23 | -16.58682 | -68.27367 | 16681 ft | 336 kts | 113° |
| 2026-05-07 18:23 | -16.59625 | -68.25066 | 16821 ft | 354 kts | 116° |
| 2026-05-07 18:24 | -16.60712 | -68.22701 | 16943 ft | 369 kts | 118° |
| 2026-05-07 18:24 | -16.61922 | -68.20313 | 17154 ft | 380 kts | 120° |
| 2026-05-07 18:24 | -16.63224 | -68.17892 | 17527 ft | 386 kts | 121° |
| 2026-05-07 18:24 | -16.64576 | -68.15459 | 17929 ft | 390 kts | 122° |
| 2026-05-07 18:25 | -16.65954 | -68.12996 | 18398 ft | 393 kts | 122° |
| 2026-05-07 18:25 | -16.67327 | -68.10526 | 18816 ft | 396 kts | 122° |
| 2026-05-07 18:25 | -16.68682 | -68.08068 | 19183 ft | 399 kts | 122° |
| 2026-05-07 18:25 | -16.70067 | -68.05539 | 19550 ft | 402 kts | 122° |
| 2026-05-07 18:26 | -16.71448 | -68.03001 | 19930 ft | 405 kts | 121° |
| 2026-05-07 18:26 | -16.72836 | -68.00436 | 20327 ft | 406 kts | 121° |
| 2026-05-07 18:26 | -16.74241 | -67.97871 | 20725 ft | 408 kts | 125° |
| 2026-05-07 18:26 | -16.76016 | -67.95589 | 21116 ft | 404 kts | 136° |
| 2026-05-07 18:27 | -16.77927 | -67.93437 | 21522 ft | 405 kts | 135° |
| 2026-05-07 18:27 | -16.79848 | -67.91291 | 22020 ft | 405 kts | 136° |
| 2026-05-07 18:27 | -16.81781 | -67.89139 | 22514 ft | 406 kts | 136° |
| 2026-05-07 18:27 | -16.83715 | -67.86986 | 23037 ft | 407 kts | 136° |
| 2026-05-07 18:28 | -16.85649 | -67.84825 | 23545 ft | 408 kts | 136° |
| 2026-05-07 18:28 | -16.87592 | -67.82649 | 23982 ft | 409 kts | 136° |
| 2026-05-07 18:28 | -16.89528 | -67.80478 | 24427 ft | 409 kts | 136° |
| 2026-05-07 18:28 | -16.91462 | -67.78308 | 24871 ft | 409 kts | 136° |
| 2026-05-07 18:29 | -16.93399 | -67.76135 | 25326 ft | 409 kts | 136° |
| 2026-05-07 18:29 | -16.95341 | -67.73952 | 25786 ft | 410 kts | 136° |
| 2026-05-07 18:29 | -16.97280 | -67.71769 | 26254 ft | 409 kts | 136° |
| 2026-05-07 18:29 | -16.99207 | -67.69599 | 26727 ft | 406 kts | 136° |
| 2026-05-07 18:30 | -17.01117 | -67.67446 | 27201 ft | 402 kts | 136° |
| 2026-05-07 18:30 | -17.03007 | -67.65319 | 27728 ft | 398 kts | 136° |
| 2026-05-07 18:30 | -17.04887 | -67.63204 | 28226 ft | 397 kts | 135° |
| 2026-05-07 18:30 | -17.06762 | -67.61095 | 28742 ft | 394 kts | 135° |
| 2026-05-07 18:31 | -17.08620 | -67.59004 | 29256 ft | 392 kts | 135° |
| 2026-05-07 18:31 | -17.10468 | -67.56922 | 29788 ft | 389 kts | 135° |
| 2026-05-07 18:31 | -17.12299 | -67.54859 | 30283 ft | 385 kts | 135° |
| 2026-05-07 18:31 | -17.14112 | -67.52819 | 30756 ft | 381 kts | 136° |
| 2026-05-07 18:32 | -17.15925 | -67.50789 | 31051 ft | 383 kts | 136° |
| 2026-05-07 18:32 | -17.17741 | -67.48769 | 31180 ft | 391 kts | 136° |
| 2026-05-07 18:32 | -17.19625 | -67.46680 | 31302 ft | 399 kts | 136° |
| 2026-05-07 18:32 | -17.21547 | -67.44544 | 31414 ft | 407 kts | 136° |
| 2026-05-07 18:33 | -17.23529 | -67.42338 | 31547 ft | 416 kts | 136° |
| 2026-05-07 18:33 | -17.25532 | -67.40107 | 31667 ft | 424 kts | 136° |
| 2026-05-07 18:33 | -17.27566 | -67.37839 | 31794 ft | 431 kts | 136° |
| 2026-05-07 18:33 | -17.29632 | -67.35531 | 31915 ft | 438 kts | 136° |
| 2026-05-07 18:34 | -17.31728 | -67.33186 | 32040 ft | 445 kts | 136° |
| 2026-05-07 18:34 | -17.33828 | -67.30835 | 32161 ft | 451 kts | 136° |
| 2026-05-07 18:34 | -17.36018 | -67.28388 | 32284 ft | 457 kts | 136° |
| 2026-05-07 18:34 | -17.38205 | -67.25943 | 32396 ft | 463 kts | 136° |
| 2026-05-07 18:35 | -17.40422 | -67.23461 | 32527 ft | 469 kts | 136° |
| 2026-05-07 18:35 | -17.42663 | -67.20949 | 32655 ft | 474 kts | 136° |
| 2026-05-07 18:35 | -17.44923 | -67.18415 | 32779 ft | 479 kts | 136° |
| 2026-05-07 18:35 | -17.47165 | -67.15899 | 32907 ft | 484 kts | 136° |
| 2026-05-07 18:36 | -17.49467 | -67.13311 | 33021 ft | 487 kts | 136° |
| 2026-05-07 18:36 | -17.51781 | -67.10714 | 33158 ft | 490 kts | 136° |
| 2026-05-07 18:36 | -17.54119 | -67.08094 | 33341 ft | 491 kts | 136° |
| 2026-05-07 18:36 | -17.56454 | -67.05478 | 33561 ft | 491 kts | 136° |
| 2026-05-07 18:37 | -17.58786 | -67.02864 | 33819 ft | 491 kts | 136° |
| 2026-05-07 18:37 | -17.61113 | -67.00252 | 34067 ft | 490 kts | 137° |
| 2026-05-07 18:37 | -17.63438 | -66.97641 | 34315 ft | 490 kts | 137° |
| 2026-05-07 18:37 | -17.65746 | -66.95047 | 34545 ft | 489 kts | 137° |
| 2026-05-07 18:38 | -17.68070 | -66.92433 | 34757 ft | 489 kts | 137° |
| 2026-05-07 18:38 | -17.70387 | -66.89827 | 34935 ft | 489 kts | 137° |
| 2026-05-07 18:38 | -17.72708 | -66.87215 | 35097 ft | 490 kts | 137° |
| 2026-05-07 18:38 | -17.75026 | -66.84603 | 35277 ft | 490 kts | 137° |
| 2026-05-07 18:39 | -17.77342 | -66.81987 | 35447 ft | 490 kts | 137° |
| 2026-05-07 18:39 | -17.79658 | -66.79370 | 35624 ft | 489 kts | 137° |
| 2026-05-07 18:39 | -17.81980 | -66.76748 | 35803 ft | 489 kts | 137° |
| 2026-05-07 18:39 | -17.84293 | -66.74137 | 35941 ft | 489 kts | 137° |
| 2026-05-07 18:40 | -17.86606 | -66.71529 | 36071 ft | 489 kts | 137° |
| 2026-05-07 18:40 | -17.88917 | -66.68925 | 36233 ft | 488 kts | 137° |
| 2026-05-07 18:40 | -17.91243 | -66.66316 | 36418 ft | 488 kts | 137° |
| 2026-05-07 18:40 | -17.93559 | -66.63734 | 36590 ft | 487 kts | 137° |
| 2026-05-07 18:41 | -17.95878 | -66.61156 | 36705 ft | 487 kts | 137° |
| 2026-05-07 18:41 | -17.98204 | -66.58569 | 36877 ft | 486 kts | 137° |
| 2026-05-07 18:41 | -18.00512 | -66.55994 | 36956 ft | 487 kts | 137° |
| 2026-05-07 18:42 | -18.05144 | -66.50811 | 36967 ft | 486 kts | 137° |
| 2026-05-07 18:42 | -18.09778 | -66.45626 | 36918 ft | 487 kts | 137° |
| 2026-05-07 18:43 | -18.14410 | -66.40444 | 36937 ft | 486 kts | 137° |
| 2026-05-07 18:43 | -18.19030 | -66.35260 | 36891 ft | 486 kts | 137° |
| 2026-05-07 18:44 | -18.23654 | -66.30067 | 36902 ft | 486 kts | 137° |
| 2026-05-07 18:44 | -18.28273 | -66.24876 | 36884 ft | 486 kts | 137° |
| 2026-05-07 18:45 | -18.32892 | -66.19687 | 36879 ft | 486 kts | 137° |
| 2026-05-07 18:45 | -18.37476 | -66.14533 | 36905 ft | 486 kts | 137° |
| 2026-05-07 18:46 | -18.42139 | -66.09293 | 36848 ft | 487 kts | 137° |
| 2026-05-07 18:46 | -18.46719 | -66.04136 | 36872 ft | 487 kts | 137° |
| 2026-05-07 18:47 | -18.51374 | -65.98885 | 36829 ft | 487 kts | 137° |
| 2026-05-07 18:47 | -18.55986 | -65.93721 | 36845 ft | 486 kts | 137° |
| 2026-05-07 18:48 | -18.60627 | -65.88541 | 36866 ft | 487 kts | 138° |
| 2026-05-07 18:48 | -18.65271 | -65.83352 | 36803 ft | 486 kts | 138° |
| 2026-05-07 18:49 | -18.69922 | -65.78141 | 36855 ft | 488 kts | 138° |
| 2026-05-07 18:49 | -18.74563 | -65.72917 | 36814 ft | 488 kts | 138° |
| 2026-05-07 18:50 | -18.79204 | -65.67702 | 36856 ft | 487 kts | 138° |
| 2026-05-07 18:50 | -18.83847 | -65.62488 | 36851 ft | 488 kts | 137° |
| 2026-05-07 18:51 | -18.88496 | -65.57255 | 36793 ft | 488 kts | 138° |
| 2026-05-07 18:51 | -18.93144 | -65.52016 | 36798 ft | 489 kts | 138° |
| 2026-05-07 18:52 | -18.97805 | -65.46794 | 36757 ft | 488 kts | 138° |
| 2026-05-07 18:52 | -19.02466 | -65.41582 | 36821 ft | 489 kts | 138° |
| 2026-05-07 18:53 | -19.07139 | -65.36354 | 36962 ft | 489 kts | 137° |
| 2026-05-07 18:53 | -19.11805 | -65.31125 | 37072 ft | 490 kts | 137° |
| 2026-05-07 18:54 | -19.16476 | -65.25886 | 37213 ft | 490 kts | 138° |
| 2026-05-07 18:54 | -19.21149 | -65.20638 | 37291 ft | 490 kts | 138° |
| 2026-05-07 18:55 | -19.25800 | -65.15367 | 37296 ft | 491 kts | 134° |
| 2026-05-07 18:55 | -19.29633 | -65.09337 | 37285 ft | 496 kts | 124° |
| 2026-05-07 18:56 | -19.33218 | -65.03096 | 37187 ft | 496 kts | 124° |
| 2026-05-07 18:56 | -19.36807 | -64.96863 | 37069 ft | 497 kts | 126° |
| 2026-05-07 18:57 | -19.40407 | -64.90606 | 36923 ft | 498 kts | 125° |
| 2026-05-07 18:57 | -19.44028 | -64.84360 | 36794 ft | 497 kts | 125° |
| 2026-05-07 18:58 | -19.47653 | -64.78111 | 36783 ft | 498 kts | 125° |
| 2026-05-07 18:58 | -19.51239 | -64.71904 | 36760 ft | 498 kts | 125° |
| 2026-05-07 18:59 | -19.54845 | -64.65645 | 36762 ft | 498 kts | 125° |
| 2026-05-07 18:59 | -19.58453 | -64.59376 | 36744 ft | 498 kts | 124° |
| 2026-05-07 19:00 | -19.62071 | -64.53102 | 36741 ft | 499 kts | 124° |
| 2026-05-07 19:00 | -19.65688 | -64.46824 | 36722 ft | 500 kts | 124° |
| 2026-05-07 19:01 | -19.69308 | -64.40513 | 36728 ft | 500 kts | 124° |
| 2026-05-07 19:01 | -19.72329 | -64.35244 | 36716 ft | 500 kts | 124° |
| 2026-05-07 19:02 | -19.75917 | -64.28983 | 36721 ft | 499 kts | 124° |
| 2026-05-07 19:02 | -19.79521 | -64.22686 | 36692 ft | 500 kts | 124° |
| 2026-05-07 19:03 | -19.83099 | -64.16443 | 36702 ft | 500 kts | 124° |
| 2026-05-07 19:03 | -19.86713 | -64.10130 | 36663 ft | 500 kts | 123° |
| 2026-05-07 19:04 | -19.90323 | -64.03807 | 36695 ft | 502 kts | 125° |
| 2026-05-07 19:04 | -19.93956 | -63.97455 | 36645 ft | 503 kts | 125° |
| 2026-05-07 19:05 | -19.97595 | -63.91104 | 36632 ft | 505 kts | 125° |
| 2026-05-07 19:05 | -20.01260 | -63.84734 | 36621 ft | 506 kts | 125° |
| 2026-05-07 19:06 | -20.04939 | -63.78362 | 36626 ft | 505 kts | 125° |
| 2026-05-07 19:06 | -20.10467 | -63.68794 | 36708 ft | 507 kts | 125° |
| 2026-05-07 19:07 | -20.14160 | -63.62396 | 36711 ft | 507 kts | 125° |
| 2026-05-07 19:07 | -20.17830 | -63.56039 | 36716 ft | 508 kts | 125° |
| 2026-05-07 19:08 | -20.21526 | -63.49644 | 36690 ft | 507 kts | 125° |
| 2026-05-07 19:08 | -20.25211 | -63.43233 | 36636 ft | 508 kts | 124° |
| 2026-05-07 19:09 | -20.28890 | -63.36809 | 36647 ft | 509 kts | 124° |
| 2026-05-07 19:09 | -20.32587 | -63.30358 | 36594 ft | 510 kts | 125° |
| 2026-05-07 19:10 | -20.36297 | -63.23898 | 36587 ft | 511 kts | 125° |
| 2026-05-07 19:10 | -20.39996 | -63.17439 | 36575 ft | 511 kts | 124° |
| 2026-05-07 19:11 | -20.43703 | -63.10957 | 36555 ft | 511 kts | 124° |
| 2026-05-07 19:11 | -20.47401 | -63.04474 | 36570 ft | 511 kts | 124° |
| 2026-05-07 19:12 | -20.51106 | -62.98016 | 36577 ft | 511 kts | 124° |
| 2026-05-07 19:12 | -20.54856 | -62.91557 | 36579 ft | 512 kts | 125° |
| 2026-05-07 19:13 | -20.58609 | -62.85101 | 36584 ft | 512 kts | 124° |
| 2026-05-07 19:13 | -20.62342 | -62.78629 | 36587 ft | 512 kts | 124° |
| 2026-05-07 19:14 | -20.66073 | -62.72144 | 36587 ft | 512 kts | 124° |
| 2026-05-07 19:14 | -20.69804 | -62.65669 | 36587 ft | 512 kts | 124° |
| 2026-05-07 19:15 | -20.73527 | -62.59193 | 36584 ft | 512 kts | 124° |
| 2026-05-07 19:15 | -20.77249 | -62.52708 | 36584 ft | 513 kts | 124° |
| 2026-05-07 19:16 | -20.80949 | -62.46251 | 36577 ft | 513 kts | 124° |
| 2026-05-07 19:16 | -20.84672 | -62.39739 | 36577 ft | 513 kts | 124° |
| 2026-05-07 19:17 | -20.88400 | -62.33227 | 36576 ft | 514 kts | 124° |
| 2026-05-07 19:17 | -20.92130 | -62.26712 | 36581 ft | 514 kts | 124° |
| 2026-05-07 19:18 | -20.95963 | -62.20276 | 36575 ft | 511 kts | 130° |
| 2026-05-07 19:18 | -21.00199 | -62.14168 | 36590 ft | 511 kts | 130° |
| 2026-05-07 19:19 | -21.04450 | -62.08070 | 36578 ft | 512 kts | 130° |
| 2026-05-07 19:19 | -21.08708 | -62.01937 | 36580 ft | 513 kts | 130° |
| 2026-05-07 19:20 | -21.12959 | -61.95797 | 36585 ft | 513 kts | 130° |
| 2026-05-07 19:20 | -21.17208 | -61.89649 | 36589 ft | 514 kts | 130° |
| 2026-05-07 19:21 | -21.21467 | -61.83503 | 36615 ft | 514 kts | 130° |
| 2026-05-07 19:21 | -21.25723 | -61.77350 | 36600 ft | 514 kts | 130° |
| 2026-05-07 19:22 | -21.29978 | -61.71174 | 36596 ft | 515 kts | 130° |
| 2026-05-07 19:22 | -21.34225 | -61.64997 | 36592 ft | 515 kts | 130° |
| 2026-05-07 19:23 | -21.38483 | -61.58807 | 36593 ft | 515 kts | 130° |
| 2026-05-07 19:23 | -21.42740 | -61.52620 | 36600 ft | 516 kts | 130° |
| 2026-05-07 19:24 | -21.47000 | -61.46415 | 36610 ft | 517 kts | 130° |
| 2026-05-07 19:24 | -21.51271 | -61.40185 | 36607 ft | 518 kts | 130° |
| 2026-05-07 19:25 | -21.55547 | -61.33946 | 36608 ft | 519 kts | 130° |
| 2026-05-07 19:25 | -21.59834 | -61.27694 | 36608 ft | 519 kts | 130° |
| 2026-05-07 19:26 | -21.64107 | -61.21441 | 36621 ft | 520 kts | 130° |
| 2026-05-07 19:26 | -21.68381 | -61.15169 | 36643 ft | 520 kts | 130° |
| 2026-05-07 19:27 | -21.72639 | -61.08927 | 36620 ft | 521 kts | 130° |
| 2026-05-07 19:27 | -21.76955 | -61.02597 | 36611 ft | 522 kts | 130° |
| 2026-05-07 19:28 | -21.81237 | -60.96298 | 36620 ft | 522 kts | 130° |
| 2026-05-07 19:28 | -21.85488 | -60.90032 | 36625 ft | 522 kts | 130° |
| 2026-05-07 19:29 | -21.89801 | -60.83685 | 36656 ft | 522 kts | 130° |
| 2026-05-07 19:29 | -21.94058 | -60.77410 | 36613 ft | 523 kts | 130° |
| 2026-05-07 19:30 | -21.98348 | -60.71074 | 36602 ft | 524 kts | 130° |
| 2026-05-07 19:30 | -22.02645 | -60.64733 | 36606 ft | 524 kts | 130° |
| 2026-05-07 19:31 | -22.07534 | -60.59038 | 36610 ft | 514 kts | 144° |
| 2026-05-07 19:31 | -22.12870 | -60.53893 | 36637 ft | 515 kts | 144° |
| 2026-05-07 19:32 | -22.18219 | -60.48739 | 36616 ft | 516 kts | 144° |
| 2026-05-07 19:32 | -22.23362 | -60.43765 | 36608 ft | 517 kts | 144° |
| 2026-05-07 19:33 | -22.28511 | -60.38778 | 36622 ft | 518 kts | 144° |
| 2026-05-07 19:33 | -22.33860 | -60.33552 | 36635 ft | 518 kts | 144° |
| 2026-05-07 19:34 | -22.39059 | -60.28467 | 36647 ft | 519 kts | 144° |
| 2026-05-07 19:34 | -22.44293 | -60.23346 | 36657 ft | 519 kts | 143° |
| 2026-05-07 19:35 | -22.49620 | -60.18121 | 36659 ft | 519 kts | 143° |
| 2026-05-07 19:35 | -22.54908 | -60.12944 | 36658 ft | 518 kts | 143° |
| 2026-05-07 19:36 | -22.60056 | -60.07901 | 36692 ft | 519 kts | 144° |
| 2026-05-07 19:36 | -22.64059 | -60.03984 | 36677 ft | 520 kts | 144° |
| 2026-05-07 19:37 | -22.70012 | -59.98120 | 36677 ft | 520 kts | 144° |
| 2026-05-07 19:37 | -22.75423 | -59.92923 | 36672 ft | 519 kts | 145° |
| 2026-05-07 19:38 | -22.80905 | -59.87835 | 36673 ft | 519 kts | 146° |
| 2026-05-07 19:38 | -22.86351 | -59.82774 | 36680 ft | 519 kts | 146° |
| 2026-05-07 19:39 | -22.91805 | -59.77635 | 36678 ft | 520 kts | 146° |
| 2026-05-07 19:39 | -22.96378 | -59.73302 | 36680 ft | 521 kts | 146° |
| 2026-05-07 19:40 | -23.02717 | -59.67293 | 36678 ft | 521 kts | 146° |
| 2026-05-07 19:40 | -23.08190 | -59.62122 | 36692 ft | 523 kts | 146° |
| 2026-05-07 19:41 | -23.13686 | -59.56932 | 36675 ft | 524 kts | 146° |
| 2026-05-07 19:41 | -23.19181 | -59.51729 | 36681 ft | 524 kts | 146° |
| 2026-05-07 19:42 | -23.24678 | -59.46511 | 36691 ft | 525 kts | 146° |
| 2026-05-07 19:42 | -23.30174 | -59.41293 | 36718 ft | 525 kts | 146° |
| 2026-05-07 19:43 | -23.35688 | -59.36053 | 36693 ft | 527 kts | 146° |
| 2026-05-07 19:43 | -23.41205 | -59.30796 | 36683 ft | 527 kts | 146° |
| 2026-05-07 19:44 | -23.46718 | -59.25543 | 36699 ft | 526 kts | 146° |
| 2026-05-07 19:44 | -23.52224 | -59.20294 | 36723 ft | 526 kts | 146° |
| 2026-05-07 19:45 | -23.57740 | -59.15029 | 36687 ft | 528 kts | 146° |
| 2026-05-07 19:45 | -23.63261 | -59.09746 | 36676 ft | 529 kts | 146° |
| 2026-05-07 19:46 | -23.68788 | -59.04442 | 36674 ft | 529 kts | 146° |
| 2026-05-07 19:46 | -23.73385 | -59.00044 | 36674 ft | 529 kts | 146° |
| 2026-05-07 19:47 | -23.78911 | -58.94748 | 36690 ft | 529 kts | 146° |
| 2026-05-07 19:47 | -23.84443 | -58.89430 | 36678 ft | 529 kts | 146° |
| 2026-05-07 19:48 | -23.89969 | -58.84116 | 36669 ft | 529 kts | 146° |
| 2026-05-07 19:48 | -23.95497 | -58.78802 | 36660 ft | 530 kts | 146° |
| 2026-05-07 19:49 | -24.01027 | -58.73471 | 36669 ft | 531 kts | 146° |
| 2026-05-07 19:49 | -24.06538 | -58.68161 | 36659 ft | 531 kts | 146° |
| 2026-05-07 19:50 | -24.12117 | -58.62775 | 36657 ft | 531 kts | 146° |
| 2026-05-07 19:50 | -24.17660 | -58.57420 | 36655 ft | 531 kts | 146° |
| 2026-05-07 19:51 | -24.23203 | -58.52060 | 36678 ft | 531 kts | 146° |
| 2026-05-07 19:51 | -24.28721 | -58.46700 | 36667 ft | 530 kts | 146° |
| 2026-05-07 19:52 | -24.34215 | -58.41386 | 36652 ft | 530 kts | 146° |
| 2026-05-07 19:52 | -24.39742 | -58.36033 | 36647 ft | 530 kts | 146° |
| 2026-05-07 19:53 | -24.45257 | -58.30661 | 36671 ft | 530 kts | 147° |
| 2026-05-07 19:53 | -24.50762 | -58.25292 | 36667 ft | 529 kts | 147° |
| 2026-05-07 19:54 | -24.56271 | -58.19930 | 36649 ft | 529 kts | 147° |
| 2026-05-07 19:54 | -24.61767 | -58.14592 | 35433 ft | 526 kts | 150° |
| 2026-05-07 19:55 | -24.64754 | -58.12287 | 33840 ft | 526 kts | 155° |
| 2026-05-07 19:55 | -24.67844 | -58.10062 | 32019 ft | 535 kts | 154° |
| 2026-05-07 19:55 | -24.70974 | -58.07812 | 30255 ft | 541 kts | 152° |
| 2026-05-07 19:55 | -24.74121 | -58.05543 | 28752 ft | 538 kts | 152° |
| 2026-05-07 19:56 | -24.77226 | -58.03296 | 27392 ft | 530 kts | 151° |
| 2026-05-07 19:56 | -24.80278 | -58.01078 | 26212 ft | 520 kts | 151° |
| 2026-05-07 19:56 | -24.83259 | -57.98909 | 25098 ft | 509 kts | 151° |
| 2026-05-07 19:56 | -24.86183 | -57.96780 | 24045 ft | 499 kts | 151° |
| 2026-05-07 19:57 | -24.89056 | -57.94693 | 22988 ft | 491 kts | 150° |
| 2026-05-07 19:57 | -24.91849 | -57.92667 | 21822 ft | 483 kts | 150° |
| 2026-05-07 19:57 | -24.94634 | -57.90647 | 20717 ft | 475 kts | 150° |
| 2026-05-07 19:57 | -24.97374 | -57.88659 | 19672 ft | 468 kts | 150° |
| 2026-05-07 19:58 | -25.00073 | -57.86701 | 18669 ft | 462 kts | 149° |
| 2026-05-07 19:58 | -25.02720 | -57.84780 | 18136 ft | 445 kts | 149° |
| 2026-05-07 19:58 | -25.05223 | -57.82958 | 18023 ft | 417 kts | 149° |
| 2026-05-07 19:58 | -25.07576 | -57.81241 | 17792 ft | 397 kts | 149° |
| 2026-05-07 19:59 | -25.09845 | -57.79586 | 17252 ft | 388 kts | 149° |
| 2026-05-07 19:59 | -25.12090 | -57.77954 | 16568 ft | 384 kts | 149° |
| 2026-05-07 19:59 | -25.14303 | -57.76347 | 15930 ft | 379 kts | 149° |
| 2026-05-07 19:59 | -25.16489 | -57.74758 | 15323 ft | 374 kts | 148° |
| 2026-05-07 20:00 | -25.18630 | -57.73199 | 14853 ft | 365 kts | 148° |
| 2026-05-07 20:00 | -25.20731 | -57.71664 | 14318 ft | 359 kts | 148° |
| 2026-05-07 20:00 | -25.22822 | -57.70186 | 13562 ft | 359 kts | 155° |
| 2026-05-07 20:00 | -25.25205 | -57.69363 | 12429 ft | 361 kts | 179° |
| 2026-05-07 20:01 | -25.27668 | -57.69567 | 11463 ft | 349 kts | 205° |
| 2026-05-07 20:01 | -25.29667 | -57.70751 | 11306 ft | 308 kts | 227° |
| 2026-05-07 20:01 | -25.30971 | -57.72500 | 10665 ft | 286 kts | 252° |
| 2026-05-07 20:01 | -25.31531 | -57.74546 | 9993 ft | 273 kts | 267° |
| 2026-05-07 20:02 | -25.31465 | -57.76565 | 9457 ft | 257 kts | 284° |
| 2026-05-07 20:02 | -25.31137 | -57.78470 | 8889 ft | 250 kts | 285° |
| 2026-05-07 20:02 | -25.30807 | -57.80343 | 8235 ft | 247 kts | 286° |
| 2026-05-07 20:02 | -25.30534 | -57.82209 | 7596 ft | 247 kts | 279° |
| 2026-05-07 20:03 | -25.30821 | -57.84119 | 6959 ft | 262 kts | 256° |
| 2026-05-07 20:03 | -25.31959 | -57.85769 | 6272 ft | 285 kts | 225° |
| 2026-05-07 20:03 | -25.33853 | -57.86609 | 5542 ft | 308 kts | 190° |
| 2026-05-07 20:03 | -25.35983 | -57.86252 | 4804 ft | 315 kts | 153° |
| 2026-05-07 20:04 | -25.37599 | -57.84783 | 4339 ft | 300 kts | 115° |
| 2026-05-07 20:04 | -25.38301 | -57.82667 | 4203 ft | 293 kts | 92° |
| 2026-05-07 20:04 | -25.38611 | -57.80510 | 4084 ft | 271 kts | 87° |
| 2026-05-07 20:04 | -25.38815 | -57.78529 | 3957 ft | 250 kts | 86° |
| 2026-05-07 20:05 | -25.39000 | -57.76642 | 3833 ft | 244 kts | 86° |
| 2026-05-07 20:05 | -25.39198 | -57.74782 | 3713 ft | 243 kts | 86° |
| 2026-05-07 20:05 | -25.39416 | -57.72925 | 3596 ft | 243 kts | 87° |
| 2026-05-07 20:05 | -25.39650 | -57.71106 | 3472 ft | 234 kts | 88° |
| 2026-05-07 20:06 | -25.39893 | -57.69377 | 3263 ft | 223 kts | 90° |
| 2026-05-07 20:06 | -25.40132 | -57.67697 | 2950 ft | 220 kts | 89° |
| 2026-05-07 20:06 | -25.40369 | -57.66035 | 2749 ft | 219 kts | 89° |
| 2026-05-07 20:06 | -25.40606 | -57.64375 | 2458 ft | 217 kts | 88° |
| 2026-05-07 20:07 | -25.40844 | -57.62727 | 2126 ft | 216 kts | 90° |
| 2026-05-07 20:07 | -25.41084 | -57.61114 | 2053 ft | 207 kts | 89° |
| 2026-05-07 20:07 | -25.41313 | -57.59588 | 1962 ft | 195 kts | 89° |
| 2026-05-07 20:07 | -25.41494 | -57.58168 | 1908 ft | 173 kts | 76° |
| 2026-05-07 20:08 | -25.41238 | -57.57015 | 1901 ft | 145 kts | 46° |
| 2026-05-07 20:08 | -25.40638 | -57.56212 | 1909 ft | 129 kts | 25° |
| 2026-05-07 20:08 | -25.39858 | -57.55767 | 1914 ft | 127 kts | 8° |
| 2026-05-07 20:08 | -25.38972 | -57.55554 | 1912 ft | 133 kts | 6° |
| 2026-05-07 20:09 | -25.38067 | -57.55336 | 1908 ft | 135 kts | 6° |
| 2026-05-07 20:09 | -25.37161 | -57.55115 | 1937 ft | 137 kts | 6° |
| 2026-05-07 20:09 | -25.36232 | -57.54889 | 1924 ft | 134 kts | 6° |
| 2026-05-07 20:10 | -25.34641 | -57.54501 | 1914 ft | 134 kts | 5° |
| 2026-05-07 20:11 | -25.34181 | -57.54370 | 1924 ft | 135 kts | 7° |
| 2026-05-07 20:11 | -25.33269 | -57.54140 | 1895 ft | 135 kts | 6° |
| 2026-05-07 20:11 | -25.32346 | -57.53920 | 1680 ft | 136 kts | 6° |
| 2026-05-07 20:11 | -25.31435 | -57.53700 | 1511 ft | 134 kts | 5° |
| 2026-05-07 20:12 | -25.30515 | -57.53479 | 1334 ft | 138 kts | 7° |
| 2026-05-07 20:12 | -25.29591 | -57.53259 | 1156 ft | 138 kts | 8° |
| 2026-05-07 20:12 | -25.28660 | -57.53034 | 981 ft | 136 kts | 8° |
| 2026-05-07 20:12 | -25.27733 | -57.52813 | 805 ft | 134 kts | 11° |
| 2026-05-07 20:13 | -25.26812 | -57.52591 | 618 ft | 138 kts | 13° |
| 2026-05-07 20:13 | -25.25873 | -57.52361 | 409 ft | 139 kts | 12° |
| 2026-05-07 20:13 | -25.24939 | -57.52148 | 293 ft | 136 kts | 13° |
| 2026-05-07 20:13 | -25.24125 | -57.51947 | 307 ft | 115 kts | 13° |
| 2026-05-07 20:14 | -25.23222 | -57.51733 | 756 ft | 142 kts | 14° |
| 2026-05-07 20:14 | -25.22195 | -57.51482 | 1038 ft | 169 kts | 12° |
| 2026-05-07 20:14 | -25.20948 | -57.51104 | 1278 ft | 194 kts | 11° |
| 2026-05-07 20:14 | -25.19663 | -57.50664 | 2125 ft | 193 kts | 12° |
| 2026-05-07 20:15 | -25.18405 | -57.50190 | 3096 ft | 189 kts | 13° |
| 2026-05-07 20:15 | -25.17205 | -57.49593 | 3959 ft | 196 kts | 28° |
| 2026-05-07 20:15 | -25.16433 | -57.48310 | 4020 ft | 221 kts | 65° |
| 2026-05-07 20:15 | -25.16583 | -57.46542 | 3689 ft | 250 kts | 108° |
| 2026-05-07 20:16 | -25.17789 | -57.45095 | 3353 ft | 265 kts | 150° |
| 2026-05-07 20:16 | -25.19566 | -57.44689 | 3055 ft | 259 kts | 194° |
| 2026-05-07 20:16 | -25.21210 | -57.45350 | 3101 ft | 259 kts | 212° |
| 2026-05-07 20:16 | -25.22850 | -57.46169 | 2993 ft | 256 kts | 212° |
| 2026-05-07 20:17 | -25.24509 | -57.46902 | 2997 ft | 261 kts | 196° |
| 2026-05-07 20:17 | -25.26329 | -57.46980 | 3003 ft | 265 kts | 178° |
| 2026-05-07 20:17 | -25.28166 | -57.46791 | 3003 ft | 266 kts | 176° |
| 2026-05-07 20:17 | -25.29999 | -57.46550 | 3003 ft | 265 kts | 175° |
| 2026-05-07 20:18 | -25.31828 | -57.46300 | 2986 ft | 264 kts | 175° |
| 2026-05-07 20:18 | -25.33649 | -57.46048 | 2985 ft | 264 kts | 175° |
| 2026-05-07 20:18 | -25.35470 | -57.45794 | 2989 ft | 264 kts | 175° |
| 2026-05-07 20:18 | -25.37280 | -57.45543 | 2990 ft | 264 kts | 175° |
| 2026-05-07 20:19 | -25.39107 | -57.45366 | 2992 ft | 261 kts | 188° |
| 2026-05-07 20:19 | -25.40816 | -57.45850 | 2993 ft | 249 kts | 216° |
| 2026-05-07 20:19 | -25.42137 | -57.46962 | 2752 ft | 232 kts | 240° |
| 2026-05-07 20:19 | -25.42907 | -57.48441 | 2511 ft | 214 kts | 261° |
| 2026-05-07 20:20 | -25.43145 | -57.50003 | 2220 ft | 202 kts | 280° |
| 2026-05-07 20:20 | -25.42920 | -57.51494 | 2037 ft | 192 kts | 292° |
| 2026-05-07 20:20 | -25.42559 | -57.52861 | 1989 ft | 177 kts | 299° |
| 2026-05-07 20:20 | -25.41951 | -57.53990 | 1994 ft | 168 kts | 315° |
| 2026-05-07 20:21 | -25.41126 | -57.54798 | 2018 ft | 148 kts | 329° |
| 2026-05-07 20:21 | -25.40246 | -57.55268 | 2004 ft | 140 kts | 341° |
| 2026-05-07 20:21 | -25.39289 | -57.55473 | 1992 ft | 138 kts | 353° |
| 2026-05-07 20:21 | -25.38330 | -57.55404 | 1979 ft | 139 kts | 4° |
| 2026-05-07 20:22 | -25.37399 | -57.55171 | 1985 ft | 136 kts | 4° |
| 2026-05-07 20:22 | -25.36503 | -57.54951 | 1982 ft | 135 kts | 5° |
| 2026-05-07 20:22 | -25.35582 | -57.54726 | 2000 ft | 133 kts | 5° |
| 2026-05-07 20:22 | -25.34673 | -57.54505 | 2003 ft | 134 kts | 6° |
| 2026-05-07 20:23 | -25.33755 | -57.54283 | 1989 ft | 136 kts | 6° |
| 2026-05-07 20:23 | -25.32830 | -57.54059 | 1827 ft | 135 kts | 5° |
| 2026-05-07 20:23 | -25.31916 | -57.53836 | 1628 ft | 134 kts | 4° |
| 2026-05-07 20:23 | -25.30984 | -57.53609 | 1432 ft | 135 kts | 7° |
| 2026-05-07 20:24 | -25.30807 | -57.53565 | 1408 ft | 134 kts | 7° |
| 2026-05-07 20:25 | -25.30615 | -57.53514 | 1384 ft | 133 kts | 9° |
| 2026-05-07 20:25 | -25.29706 | -57.53275 | 1211 ft | 134 kts | 7° |
| 2026-05-07 20:25 | -25.28790 | -57.53056 | 1024 ft | 135 kts | 6° |
| 2026-05-07 20:26 | -25.27868 | -57.52839 | 838 ft | 135 kts | 11° |
| 2026-05-07 20:26 | -25.26950 | -57.52620 | 643 ft | 135 kts | 13° |
| 2026-05-07 20:26 | -25.26012 | -57.52403 | 409 ft | 137 kts | 12° |
| 2026-05-07 20:26 | -25.25094 | -57.52184 | 297 ft | 130 kts | 13° |
| 2026-05-07 20:27 | -25.24318 | -57.51990 | 283 ft | 97 kts | 12° |
| 2026-05-07 20:27 | -25.23836 | -57.51874 | 277 ft | 59 kts | 12° |
| 2026-05-07 20:27 | -25.23474 | -57.51787 | 274 ft | 48 kts | 12° |
| 2026-05-07 20:27 | -25.23188 | -57.51716 | 272 ft | 23 kts | 12° |
| 2026-05-07 20:28 | -25.23089 | -57.51690 | 272 ft | 12 kts | 29° |
| 2026-05-07 20:28 | -25.23064 | -57.51627 | 272 ft | 0 kts | 99° |
| 2026-05-07 20:29 | -25.23064 | -57.51626 | 272 ft | 2 kts | 99° |
| 2026-05-07 20:30 | -25.23071 | -57.51580 | 275 ft | 10 kts | 98° |
| 2026-05-07 20:30 | -25.23093 | -57.51504 | 277 ft | 9 kts | 133° |
| 2026-05-07 20:30 | -25.23147 | -57.51491 | 278 ft | 9 kts | 187° |
| 2026-05-07 20:30 | -25.23224 | -57.51508 | 278 ft | 13 kts | 192° |
| 2026-05-07 20:31 | -25.23324 | -57.51533 | 278 ft | 16 kts | 193° |
| 2026-05-07 20:31 | -25.23428 | -57.51556 | 278 ft | 15 kts | 192° |
| 2026-05-07 20:31 | -25.23523 | -57.51581 | 278 ft | 13 kts | 194° |
| 2026-05-07 20:31 | -25.23610 | -57.51603 | 280 ft | 12 kts | 192° |
| 2026-05-07 20:32 | -25.23688 | -57.51621 | 278 ft | 11 kts | 193° |
| 2026-05-07 20:32 | -25.23758 | -57.51639 | 278 ft | 10 kts | 193° |
| 2026-05-07 20:32 | -25.23821 | -57.51655 | 278 ft | 9 kts | 192° |
| 2026-05-07 20:32 | -25.23884 | -57.51670 | 280 ft | 11 kts | 192° |
| 2026-05-07 20:33 | -25.23953 | -57.51673 | 279 ft | 10 kts | 161° |
| 2026-05-07 20:33 | -25.24006 | -57.51636 | 278 ft | 8 kts | 147° |
| 2026-05-07 20:33 | -25.24054 | -57.51605 | 278 ft | 7 kts | 155° |
| 2026-05-07 20:33 | -25.24107 | -57.51603 | 279 ft | 7 kts | 182° |
| 2026-05-07 20:34 | -25.24148 | -57.51582 | 279 ft | 6 kts | 131° |
| 2026-05-07 20:34 | -25.24166 | -57.51546 | 282 ft | 5 kts | 117° |
| 2026-05-07 20:34 | -25.24171 | -57.51537 | 279 ft | 2 kts | 118° |
| 2026-05-07 20:34 | -25.24175 | -57.51528 | 279 ft | 1 kts | 119° |
| 2026-05-07 20:35 | -25.24176 | -57.51527 | 279 ft | 0 kts | 119° |